Pagrindinis puslapis
METAR-TAF:

METAR-TAF

Oro uostai :

Nasau, Bahamos

platuma: 25-03N, ilguma: 077-28W, Aukštis: 3 m

Dabartinis oras

Ataskaita buvo paskelbta 1 valandą ir 42 minutes, ne 06:00 UTC
Vėjas 12 kt iš Rytų/Šiaurės Rytų
Temperatūra 21°C
Drėgmė 60%
Slėgis 1021 hPa
Matomumas 10 km arba daugiau
Mažai debesys ne aukštis 2000 ft
Su prošvaistėmis ne aukštis 4000 ft

METAR: MYNN 230600Z 07012KT 9999 FEW020 BKN040 21/13 A3015

Laikas: 02:42 (07:42 UTC)

Prognozė

Ataskaita buvo paskelbta 2 valandos ir 42 minutes, ne 05:00 UTC
Prognozė galioja nuo 23 metu 06 UTC su 24 metu 06 UTC
Vėjas 16 kt iš Rytų/Šiaurės Rytų su gūsio iki 26 kt
Matomumas 10 km arba daugiau
Išsisklaidę debesys ne aukštis 2000 ft
Su prošvaistėmis ne aukštis 4000 ft
lietus
Tapsmas
nuo 23 metu 15 UTC su 23 metu 17 UTC
Vėjas 14 kt iš Rytų
Matomumas 10 km arba daugiau
Išsisklaidę debesys ne aukštis 2500 ft

TAF: MYNN 230500Z 2306/2406 07016G26KT 9999 SHRA SCT020 BKN040 BECMG 2315/2317 09014KT 9999 SCT025

Orai ataskaitas ir orų prognozės (METAR, TAF).

turimą stotys yra geltonos ir raudonos taškus žemėlapyje.

Perkelti pele per norėdami pamatyti stoties vardą.

Tada spustelėkite, norėdami matyti oro stebėjimo ir prognozės.

Norėdami pakeisti žemėlapį: spustelėkite ant žalios mygtukų su juodo kryžiaus žemyn,; žalią mygtuką su brūkšneliu, jei norite nutolinti; arba žalių rodyklių gretimoms žemėlapius.


METAR-TAF: